sensor_id;sensor_type;location;lat;lon;timestamp;P1;durP1;ratioP1;P2;durP2;ratioP2
64885;SDS011;51514;52.206;5.114;2022-11-20T00:01:44;21.67;;;13.98;;
64885;SDS011;51514;52.206;5.114;2022-11-20T00:04:10;19.60;;;12.70;;
64885;SDS011;51514;52.206;5.114;2022-11-20T00:06:36;23.45;;;12.80;;
64885;SDS011;51514;52.206;5.114;2022-11-20T00:09:01;20.55;;;11.70;;
64885;SDS011;51514;52.206;5.114;2022-11-20T00:11:27;21.92;;;13.68;;
64885;SDS011;51514;52.206;5.114;2022-11-20T00:13:55;20.55;;;13.82;;
64885;SDS011;51514;52.206;5.114;2022-11-20T00:16:22;22.50;;;14.07;;
64885;SDS011;51514;52.206;5.114;2022-11-20T00:18:49;21.92;;;13.15;;
64885;SDS011;51514;52.206;5.114;2022-11-20T00:21:16;21.58;;;12.68;;
64885;SDS011;51514;52.206;5.114;2022-11-20T00:23:44;22.50;;;13.50;;
64885;SDS011;51514;52.206;5.114;2022-11-20T00:26:11;22.13;;;14.43;;
64885;SDS011;51514;52.206;5.114;2022-11-20T00:28:37;24.80;;;14.43;;
64885;SDS011;51514;52.206;5.114;2022-11-20T00:31:04;23.33;;;15.10;;
64885;SDS011;51514;52.206;5.114;2022-11-20T00:33:32;20.00;;;13.80;;
64885;SDS011;51514;52.206;5.114;2022-11-20T00:36:01;23.98;;;14.27;;
64885;SDS011;51514;52.206;5.114;2022-11-20T00:38:31;20.80;;;12.88;;
64885;SDS011;51514;52.206;5.114;2022-11-20T00:40:57;20.92;;;13.15;;
64885;SDS011;51514;52.206;5.114;2022-11-20T00:43:24;18.20;;;11.38;;
64885;SDS011;51514;52.206;5.114;2022-11-20T00:45:50;17.45;;;11.52;;
64885;SDS011;51514;52.206;5.114;2022-11-20T00:50:45;15.85;;;12.10;;
64885;SDS011;51514;52.206;5.114;2022-11-20T00:53:11;18.90;;;12.70;;
64885;SDS011;51514;52.206;5.114;2022-11-20T00:55:36;19.63;;;12.52;;
64885;SDS011;51514;52.206;5.114;2022-11-20T00:58:01;24.73;;;13.60;;
64885;SDS011;51514;52.206;5.114;2022-11-20T01:00:26;19.77;;;12.63;;
64885;SDS011;51514;52.206;5.114;2022-11-20T01:02:52;20.98;;;14.32;;
64885;SDS011;51514;52.206;5.114;2022-11-20T01:05:17;24.23;;;14.18;;
64885;SDS011;51514;52.206;5.114;2022-11-20T01:07:42;20.15;;;13.07;;
64885;SDS011;51514;52.206;5.114;2022-11-20T01:10:08;21.50;;;14.02;;
64885;SDS011;51514;52.206;5.114;2022-11-20T01:12:33;19.73;;;13.45;;
64885;SDS011;51514;52.206;5.114;2022-11-20T01:14:58;19.05;;;11.52;;
64885;SDS011;51514;52.206;5.114;2022-11-20T01:17:24;19.77;;;13.10;;
64885;SDS011;51514;52.206;5.114;2022-11-20T01:19:49;19.45;;;12.55;;
64885;SDS011;51514;52.206;5.114;2022-11-20T01:22:15;20.10;;;12.98;;
64885;SDS011;51514;52.206;5.114;2022-11-20T01:24:41;18.95;;;12.88;;
64885;SDS011;51514;52.206;5.114;2022-11-20T01:27:06;21.67;;;13.73;;
64885;SDS011;51514;52.206;5.114;2022-11-20T01:29:31;22.83;;;13.18;;
64885;SDS011;51514;52.206;5.114;2022-11-20T01:31:56;18.23;;;12.77;;
64885;SDS011;51514;52.206;5.114;2022-11-20T01:34:22;24.35;;;13.07;;
64885;SDS011;51514;52.206;5.114;2022-11-20T01:36:48;20.70;;;13.18;;
64885;SDS011;51514;52.206;5.114;2022-11-20T01:39:17;21.00;;;13.32;;
64885;SDS011;51514;52.206;5.114;2022-11-20T01:41:45;19.98;;;12.57;;
64885;SDS011;51514;52.206;5.114;2022-11-20T01:44:42;18.48;;;11.48;;
64885;SDS011;51514;52.206;5.114;2022-11-20T01:47:27;20.80;;;12.27;;
64885;SDS011;51514;52.206;5.114;2022-11-20T01:50:04;20.00;;;13.07;;
64885;SDS011;51514;52.206;5.114;2022-11-20T01:52:38;21.98;;;12.77;;
64885;SDS011;51514;52.206;5.114;2022-11-20T01:55:09;19.90;;;13.43;;
64885;SDS011;51514;52.206;5.114;2022-11-20T01:57:38;22.45;;;13.30;;
64885;SDS011;51514;52.206;5.114;2022-11-20T02:00:08;23.65;;;13.15;;
64885;SDS011;51514;52.206;5.114;2022-11-20T02:02:37;20.10;;;13.63;;
64885;SDS011;51514;52.206;5.114;2022-11-20T02:05:17;24.38;;;13.57;;
64885;SDS011;51514;52.206;5.114;2022-11-20T02:07:57;20.83;;;13.07;;
64885;SDS011;51514;52.206;5.114;2022-11-20T02:10:24;21.67;;;12.65;;
64885;SDS011;51514;52.206;5.114;2022-11-20T02:12:52;19.98;;;12.23;;
64885;SDS011;51514;52.206;5.114;2022-11-20T02:15:36;24.30;;;14.20;;
64885;SDS011;51514;52.206;5.114;2022-11-20T02:18:01;22.83;;;14.32;;
64885;SDS011;51514;52.206;5.114;2022-11-20T02:20:27;21.00;;;13.80;;
64885;SDS011;51514;52.206;5.114;2022-11-20T02:22:57;21.83;;;13.13;;
64885;SDS011;51514;52.206;5.114;2022-11-20T02:25:28;23.20;;;13.60;;
64885;SDS011;51514;52.206;5.114;2022-11-20T02:27:55;22.35;;;13.15;;
64885;SDS011;51514;52.206;5.114;2022-11-20T02:30:20;19.45;;;12.48;;
64885;SDS011;51514;52.206;5.114;2022-11-20T02:32:46;21.50;;;12.77;;
64885;SDS011;51514;52.206;5.114;2022-11-20T02:37:42;22.33;;;13.55;;
64885;SDS011;51514;52.206;5.114;2022-11-20T02:40:09;20.00;;;13.70;;
64885;SDS011;51514;52.206;5.114;2022-11-20T02:42:35;19.88;;;12.43;;
64885;SDS011;51514;52.206;5.114;2022-11-20T02:45:01;22.83;;;12.95;;
64885;SDS011;51514;52.206;5.114;2022-11-20T02:47:27;20.17;;;12.25;;
64885;SDS011;51514;52.206;5.114;2022-11-20T02:49:52;18.85;;;12.50;;
64885;SDS011;51514;52.206;5.114;2022-11-20T02:52:18;18.52;;;12.32;;
64885;SDS011;51514;52.206;5.114;2022-11-20T02:54:43;20.83;;;12.70;;
64885;SDS011;51514;52.206;5.114;2022-11-20T02:57:08;21.08;;;12.50;;
64885;SDS011;51514;52.206;5.114;2022-11-20T02:59:33;20.73;;;13.23;;
64885;SDS011;51514;52.206;5.114;2022-11-20T03:01:59;19.70;;;12.38;;
64885;SDS011;51514;52.206;5.114;2022-11-20T03:04:25;21.92;;;13.07;;
64885;SDS011;51514;52.206;5.114;2022-11-20T03:06:50;19.67;;;13.27;;
64885;SDS011;51514;52.206;5.114;2022-11-20T03:09:15;18.40;;;12.05;;
64885;SDS011;51514;52.206;5.114;2022-11-20T03:11:41;23.05;;;13.85;;
64885;SDS011;51514;52.206;5.114;2022-11-20T03:14:06;19.48;;;12.77;;
64885;SDS011;51514;52.206;5.114;2022-11-20T03:16:31;20.15;;;12.77;;
64885;SDS011;51514;52.206;5.114;2022-11-20T03:18:57;19.25;;;12.93;;
64885;SDS011;51514;52.206;5.114;2022-11-20T03:21:23;25.52;;;13.25;;
64885;SDS011;51514;52.206;5.114;2022-11-20T03:23:48;21.15;;;13.75;;
64885;SDS011;51514;52.206;5.114;2022-11-20T03:26:21;24.05;;;12.93;;
64885;SDS011;51514;52.206;5.114;2022-11-20T03:28:52;20.52;;;12.88;;
64885;SDS011;51514;52.206;5.114;2022-11-20T03:31:26;19.88;;;12.98;;
64885;SDS011;51514;52.206;5.114;2022-11-20T03:33:56;19.83;;;12.23;;
64885;SDS011;51514;52.206;5.114;2022-11-20T03:36:23;23.13;;;13.25;;
64885;SDS011;51514;52.206;5.114;2022-11-20T03:38:48;18.23;;;11.50;;
64885;SDS011;51514;52.206;5.114;2022-11-20T03:41:19;20.02;;;13.27;;
64885;SDS011;51514;52.206;5.114;2022-11-20T03:43:49;22.95;;;14.50;;
64885;SDS011;51514;52.206;5.114;2022-11-20T03:46:16;21.75;;;12.70;;
64885;SDS011;51514;52.206;5.114;2022-11-20T03:48:41;21.25;;;12.38;;
64885;SDS011;51514;52.206;5.114;2022-11-20T03:51:17;19.90;;;11.48;;
64885;SDS011;51514;52.206;5.114;2022-11-20T03:53:46;17.65;;;12.75;;
64885;SDS011;51514;52.206;5.114;2022-11-20T03:56:14;18.77;;;11.73;;
64885;SDS011;51514;52.206;5.114;2022-11-20T03:58:41;16.63;;;11.45;;
64885;SDS011;51514;52.206;5.114;2022-11-20T04:01:08;21.60;;;12.57;;
64885;SDS011;51514;52.206;5.114;2022-11-20T04:03:35;20.08;;;12.85;;
64885;SDS011;51514;52.206;5.114;2022-11-20T04:06:05;20.92;;;12.40;;
64885;SDS011;51514;52.206;5.114;2022-11-20T04:08:32;18.17;;;11.15;;
64885;SDS011;51514;52.206;5.114;2022-11-20T04:13:57;20.48;;;12.73;;
64885;SDS011;51514;52.206;5.114;2022-11-20T04:16:24;20.27;;;12.18;;
64885;SDS011;51514;52.206;5.114;2022-11-20T04:18:54;20.20;;;11.50;;
64885;SDS011;51514;52.206;5.114;2022-11-20T04:21:21;21.17;;;12.45;;
64885;SDS011;51514;52.206;5.114;2022-11-20T04:23:48;20.58;;;12.70;;
64885;SDS011;51514;52.206;5.114;2022-11-20T04:26:14;20.80;;;13.40;;
64885;SDS011;51514;52.206;5.114;2022-11-20T04:28:39;17.77;;;12.25;;
64885;SDS011;51514;52.206;5.114;2022-11-20T04:31:06;17.65;;;12.23;;
64885;SDS011;51514;52.206;5.114;2022-11-20T04:33:32;20.05;;;12.23;;
64885;SDS011;51514;52.206;5.114;2022-11-20T04:36:05;21.77;;;13.02;;
64885;SDS011;51514;52.206;5.114;2022-11-20T04:38:32;21.75;;;14.32;;
64885;SDS011;51514;52.206;5.114;2022-11-20T04:40:58;19.35;;;13.13;;
64885;SDS011;51514;52.206;5.114;2022-11-20T04:43:36;19.50;;;12.75;;
64885;SDS011;51514;52.206;5.114;2022-11-20T04:46:01;22.65;;;13.55;;
64885;SDS011;51514;52.206;5.114;2022-11-20T04:48:27;23.75;;;12.30;;
64885;SDS011;51514;52.206;5.114;2022-11-20T04:50:53;22.00;;;12.63;;
64885;SDS011;51514;52.206;5.114;2022-11-20T04:53:19;18.38;;;12.95;;
64885;SDS011;51514;52.206;5.114;2022-11-20T04:55:45;18.73;;;13.00;;
64885;SDS011;51514;52.206;5.114;2022-11-20T04:58:10;24.33;;;14.85;;
64885;SDS011;51514;52.206;5.114;2022-11-20T05:00:36;21.92;;;13.27;;
64885;SDS011;51514;52.206;5.114;2022-11-20T05:03:02;16.85;;;11.70;;
64885;SDS011;51514;52.206;5.114;2022-11-20T05:05:27;18.55;;;10.75;;
64885;SDS011;51514;52.206;5.114;2022-11-20T05:07:52;17.90;;;11.52;;
64885;SDS011;51514;52.206;5.114;2022-11-20T05:10:20;17.77;;;11.32;;
64885;SDS011;51514;52.206;5.114;2022-11-20T05:12:45;17.95;;;11.57;;
64885;SDS011;51514;52.206;5.114;2022-11-20T05:15:11;20.80;;;13.40;;
64885;SDS011;51514;52.206;5.114;2022-11-20T05:17:36;17.65;;;12.20;;
64885;SDS011;51514;52.206;5.114;2022-11-20T05:20:01;19.63;;;12.30;;
64885;SDS011;51514;52.206;5.114;2022-11-20T05:22:27;22.17;;;14.50;;
64885;SDS011;51514;52.206;5.114;2022-11-20T05:24:52;19.88;;;12.45;;
64885;SDS011;51514;52.206;5.114;2022-11-20T05:27:17;20.05;;;13.05;;
64885;SDS011;51514;52.206;5.114;2022-11-20T05:29:43;20.75;;;14.05;;
64885;SDS011;51514;52.206;5.114;2022-11-20T05:32:08;21.15;;;13.13;;
64885;SDS011;51514;52.206;5.114;2022-11-20T05:34:34;19.27;;;14.45;;
64885;SDS011;51514;52.206;5.114;2022-11-20T05:37:01;22.20;;;13.48;;
64885;SDS011;51514;52.206;5.114;2022-11-20T05:39:26;20.85;;;13.60;;
64885;SDS011;51514;52.206;5.114;2022-11-20T05:41:52;22.27;;;13.95;;
64885;SDS011;51514;52.206;5.114;2022-11-20T05:44:37;23.63;;;14.93;;
64885;SDS011;51514;52.206;5.114;2022-11-20T05:47:02;23.10;;;14.95;;
64885;SDS011;51514;52.206;5.114;2022-11-20T05:49:28;21.83;;;14.40;;
64885;SDS011;51514;52.206;5.114;2022-11-20T05:51:53;23.13;;;13.48;;
64885;SDS011;51514;52.206;5.114;2022-11-20T05:54:18;20.10;;;13.73;;
64885;SDS011;51514;52.206;5.114;2022-11-20T05:56:43;19.75;;;13.15;;
64885;SDS011;51514;52.206;5.114;2022-11-20T05:59:09;22.67;;;14.30;;
64885;SDS011;51514;52.206;5.114;2022-11-20T06:01:34;19.02;;;13.98;;
64885;SDS011;51514;52.206;5.114;2022-11-20T06:04:01;22.30;;;14.60;;
64885;SDS011;51514;52.206;5.114;2022-11-20T06:06:26;22.55;;;13.27;;
64885;SDS011;51514;52.206;5.114;2022-11-20T06:08:52;22.15;;;13.95;;
64885;SDS011;51514;52.206;5.114;2022-11-20T06:11:17;22.73;;;14.15;;
64885;SDS011;51514;52.206;5.114;2022-11-20T06:13:43;22.95;;;14.65;;
64885;SDS011;51514;52.206;5.114;2022-11-20T06:16:10;20.80;;;13.20;;
64885;SDS011;51514;52.206;5.114;2022-11-20T06:18:38;16.58;;;12.25;;
64885;SDS011;51514;52.206;5.114;2022-11-20T06:21:07;21.15;;;12.75;;
64885;SDS011;51514;52.206;5.114;2022-11-20T06:23:35;20.85;;;13.68;;
64885;SDS011;51514;52.206;5.114;2022-11-20T06:26:05;19.00;;;12.27;;
64885;SDS011;51514;52.206;5.114;2022-11-20T06:28:32;21.58;;;13.93;;
64885;SDS011;51514;52.206;5.114;2022-11-20T06:30:57;22.65;;;13.43;;
64885;SDS011;51514;52.206;5.114;2022-11-20T06:33:23;21.65;;;13.73;;
64885;SDS011;51514;52.206;5.114;2022-11-20T06:35:48;22.92;;;13.95;;
64885;SDS011;51514;52.206;5.114;2022-11-20T06:38:14;22.98;;;14.18;;
64885;SDS011;51514;52.206;5.114;2022-11-20T06:40:40;22.63;;;13.23;;
64885;SDS011;51514;52.206;5.114;2022-11-20T06:43:06;22.17;;;15.27;;
64885;SDS011;51514;52.206;5.114;2022-11-20T06:45:31;24.38;;;14.60;;
64885;SDS011;51514;52.206;5.114;2022-11-20T06:47:57;21.83;;;12.80;;
64885;SDS011;51514;52.206;5.114;2022-11-20T06:50:22;25.20;;;15.13;;
64885;SDS011;51514;52.206;5.114;2022-11-20T06:52:48;24.52;;;15.68;;
64885;SDS011;51514;52.206;5.114;2022-11-20T06:55:13;22.58;;;14.40;;
64885;SDS011;51514;52.206;5.114;2022-11-20T06:57:38;21.58;;;13.77;;
64885;SDS011;51514;52.206;5.114;2022-11-20T07:00:04;21.48;;;13.63;;
64885;SDS011;51514;52.206;5.114;2022-11-20T07:02:29;22.92;;;13.75;;
64885;SDS011;51514;52.206;5.114;2022-11-20T07:04:55;20.60;;;13.68;;
64885;SDS011;51514;52.206;5.114;2022-11-20T07:07:20;21.95;;;13.07;;
64885;SDS011;51514;52.206;5.114;2022-11-20T07:09:45;19.73;;;13.23;;
64885;SDS011;51514;52.206;5.114;2022-11-20T07:12:10;20.92;;;13.60;;
64885;SDS011;51514;52.206;5.114;2022-11-20T07:14:36;20.92;;;13.52;;
64885;SDS011;51514;52.206;5.114;2022-11-20T07:17:01;21.27;;;13.75;;
64885;SDS011;51514;52.206;5.114;2022-11-20T07:19:27;22.73;;;13.75;;
64885;SDS011;51514;52.206;5.114;2022-11-20T07:21:53;23.83;;;14.35;;
64885;SDS011;51514;52.206;5.114;2022-11-20T07:24:18;26.00;;;15.13;;
64885;SDS011;51514;52.206;5.114;2022-11-20T07:26:45;23.27;;;14.90;;
64885;SDS011;51514;52.206;5.114;2022-11-20T07:29:14;27.70;;;16.33;;
64885;SDS011;51514;52.206;5.114;2022-11-20T07:31:39;50.67;;;28.23;;
64885;SDS011;51514;52.206;5.114;2022-11-20T07:34:04;36.75;;;24.98;;
64885;SDS011;51514;52.206;5.114;2022-11-20T07:36:30;29.20;;;19.17;;
64885;SDS011;51514;52.206;5.114;2022-11-20T07:38:55;24.45;;;16.85;;
64885;SDS011;51514;52.206;5.114;2022-11-20T07:41:20;26.85;;;17.13;;
64885;SDS011;51514;52.206;5.114;2022-11-20T07:43:46;20.88;;;13.82;;
64885;SDS011;51514;52.206;5.114;2022-11-20T07:46:11;26.98;;;15.27;;
64885;SDS011;51514;52.206;5.114;2022-11-20T07:48:36;22.85;;;15.48;;
64885;SDS011;51514;52.206;5.114;2022-11-20T07:51:01;23.75;;;14.88;;
64885;SDS011;51514;52.206;5.114;2022-11-20T07:53:27;27.58;;;16.95;;
64885;SDS011;51514;52.206;5.114;2022-11-20T07:55:52;26.98;;;15.02;;
64885;SDS011;51514;52.206;5.114;2022-11-20T07:58:18;24.67;;;17.10;;
64885;SDS011;51514;52.206;5.114;2022-11-20T08:00:45;31.98;;;20.25;;
64885;SDS011;51514;52.206;5.114;2022-11-20T08:03:10;24.05;;;16.23;;
64885;SDS011;51514;52.206;5.114;2022-11-20T08:05:36;25.27;;;16.90;;
64885;SDS011;51514;52.206;5.114;2022-11-20T08:08:02;26.98;;;16.75;;
64885;SDS011;51514;52.206;5.114;2022-11-20T08:10:28;29.52;;;16.85;;
64885;SDS011;51514;52.206;5.114;2022-11-20T08:12:53;24.63;;;15.15;;
64885;SDS011;51514;52.206;5.114;2022-11-20T08:15:38;27.40;;;16.13;;
64885;SDS011;51514;52.206;5.114;2022-11-20T08:18:08;27.20;;;16.63;;
64885;SDS011;51514;52.206;5.114;2022-11-20T08:20:37;24.58;;;15.90;;
64885;SDS011;51514;52.206;5.114;2022-11-20T08:23:05;25.83;;;16.45;;
64885;SDS011;51514;52.206;5.114;2022-11-20T08:25:33;24.40;;;16.15;;
64885;SDS011;51514;52.206;5.114;2022-11-20T08:27:59;26.58;;;16.00;;
64885;SDS011;51514;52.206;5.114;2022-11-20T08:30:29;25.30;;;15.68;;
64885;SDS011;51514;52.206;5.114;2022-11-20T08:32:59;24.27;;;15.82;;
64885;SDS011;51514;52.206;5.114;2022-11-20T08:35:32;24.73;;;15.05;;
64885;SDS011;51514;52.206;5.114;2022-11-20T08:37:58;27.83;;;16.35;;
64885;SDS011;51514;52.206;5.114;2022-11-20T08:40:23;26.35;;;16.83;;
64885;SDS011;51514;52.206;5.114;2022-11-20T08:42:49;26.42;;;17.02;;
64885;SDS011;51514;52.206;5.114;2022-11-20T08:45:15;26.63;;;16.88;;
64885;SDS011;51514;52.206;5.114;2022-11-20T08:47:43;26.15;;;16.60;;
64885;SDS011;51514;52.206;5.114;2022-11-20T08:50:10;25.73;;;16.83;;
64885;SDS011;51514;52.206;5.114;2022-11-20T08:52:37;26.55;;;16.50;;
64885;SDS011;51514;52.206;5.114;2022-11-20T08:55:03;26.33;;;17.20;;
64885;SDS011;51514;52.206;5.114;2022-11-20T08:57:36;30.75;;;18.60;;
64885;SDS011;51514;52.206;5.114;2022-11-20T09:00:03;29.40;;;17.83;;
64885;SDS011;51514;52.206;5.114;2022-11-20T09:02:30;25.90;;;17.52;;
64885;SDS011;51514;52.206;5.114;2022-11-20T09:04:55;23.27;;;15.32;;
64885;SDS011;51514;52.206;5.114;2022-11-20T09:07:20;30.98;;;17.95;;
64885;SDS011;51514;52.206;5.114;2022-11-20T09:09:46;26.10;;;16.75;;
64885;SDS011;51514;52.206;5.114;2022-11-20T09:12:11;28.42;;;18.58;;
64885;SDS011;51514;52.206;5.114;2022-11-20T09:14:37;28.40;;;17.48;;
64885;SDS011;51514;52.206;5.114;2022-11-20T09:17:02;30.45;;;18.63;;
64885;SDS011;51514;52.206;5.114;2022-11-20T09:19:29;27.63;;;17.15;;
64885;SDS011;51514;52.206;5.114;2022-11-20T09:21:54;29.45;;;18.48;;
64885;SDS011;51514;52.206;5.114;2022-11-20T09:24:20;28.20;;;18.17;;
64885;SDS011;51514;52.206;5.114;2022-11-20T09:26:48;30.95;;;20.30;;
64885;SDS011;51514;52.206;5.114;2022-11-20T09:29:13;30.23;;;19.52;;
64885;SDS011;51514;52.206;5.114;2022-11-20T09:31:38;31.02;;;18.90;;
64885;SDS011;51514;52.206;5.114;2022-11-20T09:34:04;27.95;;;17.80;;
64885;SDS011;51514;52.206;5.114;2022-11-20T09:36:29;29.95;;;18.20;;
64885;SDS011;51514;52.206;5.114;2022-11-20T09:38:54;36.63;;;20.05;;
64885;SDS011;51514;52.206;5.114;2022-11-20T09:44:19;34.22;;;20.30;;
64885;SDS011;51514;52.206;5.114;2022-11-20T09:47:43;29.02;;;18.48;;
64885;SDS011;51514;52.206;5.114;2022-11-20T09:55:39;30.23;;;18.80;;
64885;SDS011;51514;52.206;5.114;2022-11-20T09:58:05;31.20;;;19.35;;
64885;SDS011;51514;52.206;5.114;2022-11-20T10:00:32;29.02;;;18.05;;
64885;SDS011;51514;52.206;5.114;2022-11-20T10:03:21;31.80;;;19.73;;
64885;SDS011;51514;52.206;5.114;2022-11-20T10:06:00;35.47;;;20.45;;
64885;SDS011;51514;52.206;5.114;2022-11-20T10:08:29;34.85;;;20.58;;
64885;SDS011;51514;52.206;5.114;2022-11-20T10:16:53;31.25;;;20.15;;
64885;SDS011;51514;52.206;5.114;2022-11-20T10:25:12;32.35;;;19.60;;
64885;SDS011;51514;52.206;5.114;2022-11-20T10:30:21;33.50;;;20.05;;
64885;SDS011;51514;52.206;5.114;2022-11-20T10:32:54;30.35;;;18.65;;
64885;SDS011;51514;52.206;5.114;2022-11-20T10:38:00;34.58;;;20.60;;
64885;SDS011;51514;52.206;5.114;2022-11-20T10:40:38;36.67;;;20.67;;
64885;SDS011;51514;52.206;5.114;2022-11-20T10:43:21;33.40;;;20.45;;
64885;SDS011;51514;52.206;5.114;2022-11-20T10:46:03;35.00;;;20.10;;
64885;SDS011;51514;52.206;5.114;2022-11-20T10:48:33;33.22;;;19.75;;
64885;SDS011;51514;52.206;5.114;2022-11-20T10:56:17;33.03;;;20.58;;
64885;SDS011;51514;52.206;5.114;2022-11-20T11:01:29;35.50;;;20.98;;
64885;SDS011;51514;52.206;5.114;2022-11-20T11:03:54;29.58;;;19.77;;
64885;SDS011;51514;52.206;5.114;2022-11-20T11:06:25;32.00;;;20.63;;
64885;SDS011;51514;52.206;5.114;2022-11-20T11:08:58;31.17;;;19.55;;
64885;SDS011;51514;52.206;5.114;2022-11-20T11:11:30;36.08;;;22.88;;
64885;SDS011;51514;52.206;5.114;2022-11-20T11:14:11;30.23;;;20.55;;
64885;SDS011;51514;52.206;5.114;2022-11-20T11:16:56;34.25;;;21.17;;
64885;SDS011;51514;52.206;5.114;2022-11-20T11:19:23;39.05;;;22.52;;
64885;SDS011;51514;52.206;5.114;2022-11-20T11:21:50;34.38;;;21.10;;
64885;SDS011;51514;52.206;5.114;2022-11-20T11:24:28;39.08;;;22.42;;
64885;SDS011;51514;52.206;5.114;2022-11-20T11:26:56;37.13;;;22.02;;
64885;SDS011;51514;52.206;5.114;2022-11-20T11:29:25;36.88;;;23.45;;
64885;SDS011;51514;52.206;5.114;2022-11-20T11:35:02;31.85;;;19.90;;
64885;SDS011;51514;52.206;5.114;2022-11-20T11:37:33;38.33;;;23.33;;
64885;SDS011;51514;52.206;5.114;2022-11-20T11:40:03;39.40;;;23.02;;
64885;SDS011;51514;52.206;5.114;2022-11-20T11:42:31;40.70;;;26.02;;
64885;SDS011;51514;52.206;5.114;2022-11-20T11:44:56;38.30;;;22.77;;
64885;SDS011;51514;52.206;5.114;2022-11-20T11:47:36;38.63;;;24.08;;
64885;SDS011;51514;52.206;5.114;2022-11-20T11:55:35;44.22;;;23.95;;
64885;SDS011;51514;52.206;5.114;2022-11-20T11:58:14;38.28;;;23.27;;
64885;SDS011;51514;52.206;5.114;2022-11-20T12:00:50;45.33;;;24.38;;
64885;SDS011;51514;52.206;5.114;2022-11-20T12:06:20;43.53;;;25.00;;
64885;SDS011;51514;52.206;5.114;2022-11-20T12:08:50;47.55;;;25.58;;
64885;SDS011;51514;52.206;5.114;2022-11-20T12:11:45;45.80;;;26.40;;
64885;SDS011;51514;52.206;5.114;2022-11-20T12:14:17;45.92;;;26.15;;
64885;SDS011;51514;52.206;5.114;2022-11-20T12:16:49;47.50;;;27.00;;
64885;SDS011;51514;52.206;5.114;2022-11-20T12:19:15;46.55;;;26.58;;
64885;SDS011;51514;52.206;5.114;2022-11-20T12:21:56;46.65;;;24.75;;
64885;SDS011;51514;52.206;5.114;2022-11-20T12:32:38;52.70;;;28.52;;
64885;SDS011;51514;52.206;5.114;2022-11-20T12:38:08;64.63;;;31.92;;
64885;SDS011;51514;52.206;5.114;2022-11-20T12:40:59;306.35;;;86.55;;
64885;SDS011;51514;52.206;5.114;2022-11-20T12:43:28;68.18;;;33.15;;
64885;SDS011;51514;52.206;5.114;2022-11-20T12:46:32;274.83;;;88.28;;
64885;SDS011;51514;52.206;5.114;2022-11-20T12:54:41;153.65;;;55.90;;
64885;SDS011;51514;52.206;5.114;2022-11-20T12:57:24;112.57;;;46.30;;
64885;SDS011;51514;52.206;5.114;2022-11-20T13:00:09;110.50;;;44.90;;
64885;SDS011;51514;52.206;5.114;2022-11-20T13:02:54;102.50;;;44.53;;
64885;SDS011;51514;52.206;5.114;2022-11-20T13:08:20;96.35;;;43.90;;
64885;SDS011;51514;52.206;5.114;2022-11-20T13:10:51;53.13;;;29.75;;
64885;SDS011;51514;52.206;5.114;2022-11-20T13:13:31;87.47;;;40.80;;
64885;SDS011;51514;52.206;5.114;2022-11-20T13:16:07;74.00;;;37.55;;
64885;SDS011;51514;52.206;5.114;2022-11-20T13:18:40;56.08;;;29.42;;
64885;SDS011;51514;52.206;5.114;2022-11-20T13:24:07;53.63;;;29.90;;
64885;SDS011;51514;52.206;5.114;2022-11-20T13:26:45;59.03;;;32.22;;
64885;SDS011;51514;52.206;5.114;2022-11-20T13:29:12;62.25;;;31.13;;
64885;SDS011;51514;52.206;5.114;2022-11-20T13:31:46;59.95;;;32.67;;
64885;SDS011;51514;52.206;5.114;2022-11-20T13:34:25;56.22;;;31.05;;
64885;SDS011;51514;52.206;5.114;2022-11-20T13:36:53;56.05;;;31.75;;
64885;SDS011;51514;52.206;5.114;2022-11-20T13:39:26;55.90;;;30.42;;
64885;SDS011;51514;52.206;5.114;2022-11-20T13:42:25;61.65;;;30.30;;
64885;SDS011;51514;52.206;5.114;2022-11-20T13:44:54;54.70;;;30.52;;
64885;SDS011;51514;52.206;5.114;2022-11-20T13:47:21;68.45;;;33.20;;
64885;SDS011;51514;52.206;5.114;2022-11-20T13:49:48;57.67;;;30.85;;
64885;SDS011;51514;52.206;5.114;2022-11-20T13:57:59;58.20;;;30.15;;
64885;SDS011;51514;52.206;5.114;2022-11-20T14:00:28;58.05;;;32.42;;
64885;SDS011;51514;52.206;5.114;2022-11-20T14:03:28;70.90;;;37.60;;
64885;SDS011;51514;52.206;5.114;2022-11-20T14:05:50;53.92;;;31.20;;
64885;SDS011;51514;52.206;5.114;2022-11-20T14:08:39;231.18;;;119.65;;
64885;SDS011;51514;52.206;5.114;2022-11-20T14:11:15;63.10;;;35.72;;
64885;SDS011;51514;52.206;5.114;2022-11-20T14:16:29;60.08;;;31.80;;
64885;SDS011;51514;52.206;5.114;2022-11-20T14:18:57;56.95;;;31.45;;
64885;SDS011;51514;52.206;5.114;2022-11-20T14:21:42;56.80;;;32.38;;
64885;SDS011;51514;52.206;5.114;2022-11-20T14:24:10;56.30;;;31.40;;
64885;SDS011;51514;52.206;5.114;2022-11-20T14:26:37;55.15;;;31.50;;
64885;SDS011;51514;52.206;5.114;2022-11-20T14:29:12;69.30;;;45.28;;
64885;SDS011;51514;52.206;5.114;2022-11-20T14:31:42;59.70;;;33.63;;
64885;SDS011;51514;52.206;5.114;2022-11-20T14:34:17;58.13;;;31.42;;
64885;SDS011;51514;52.206;5.114;2022-11-20T14:36:58;56.05;;;30.65;;
64885;SDS011;51514;52.206;5.114;2022-11-20T14:39:34;58.17;;;31.60;;
64885;SDS011;51514;52.206;5.114;2022-11-20T14:42:01;57.70;;;32.60;;
64885;SDS011;51514;52.206;5.114;2022-11-20T14:44:38;53.65;;;30.25;;
64885;SDS011;51514;52.206;5.114;2022-11-20T14:47:05;62.65;;;33.85;;
64885;SDS011;51514;52.206;5.114;2022-11-20T14:49:31;57.38;;;30.95;;
64885;SDS011;51514;52.206;5.114;2022-11-20T14:52:00;70.35;;;37.10;;
64885;SDS011;51514;52.206;5.114;2022-11-20T14:54:47;62.47;;;34.78;;
64885;SDS011;51514;52.206;5.114;2022-11-20T14:57:21;58.33;;;31.00;;
64885;SDS011;51514;52.206;5.114;2022-11-20T14:59:46;57.92;;;31.48;;
64885;SDS011;51514;52.206;5.114;2022-11-20T15:02:12;69.93;;;34.08;;
64885;SDS011;51514;52.206;5.114;2022-11-20T15:04:44;61.55;;;32.28;;
64885;SDS011;51514;52.206;5.114;2022-11-20T15:07:10;62.33;;;32.90;;
64885;SDS011;51514;52.206;5.114;2022-11-20T15:09:35;56.25;;;32.15;;
64885;SDS011;51514;52.206;5.114;2022-11-20T15:12:01;61.67;;;33.25;;
64885;SDS011;51514;52.206;5.114;2022-11-20T15:14:28;62.50;;;34.05;;
64885;SDS011;51514;52.206;5.114;2022-11-20T15:16:55;57.92;;;32.35;;
64885;SDS011;51514;52.206;5.114;2022-11-20T15:19:22;62.88;;;35.38;;
64885;SDS011;51514;52.206;5.114;2022-11-20T15:21:48;56.08;;;31.52;;
64885;SDS011;51514;52.206;5.114;2022-11-20T15:24:14;59.92;;;32.65;;
64885;SDS011;51514;52.206;5.114;2022-11-20T15:26:40;64.45;;;32.03;;
64885;SDS011;51514;52.206;5.114;2022-11-20T15:29:15;58.33;;;31.10;;
64885;SDS011;51514;52.206;5.114;2022-11-20T15:31:45;113.68;;;58.60;;
64885;SDS011;51514;52.206;5.114;2022-11-20T15:34:11;96.32;;;51.13;;
64885;SDS011;51514;52.206;5.114;2022-11-20T15:36:38;58.58;;;33.88;;
64885;SDS011;51514;52.206;5.114;2022-11-20T15:39:04;59.08;;;34.28;;
64885;SDS011;51514;52.206;5.114;2022-11-20T15:41:32;58.45;;;34.75;;
64885;SDS011;51514;52.206;5.114;2022-11-20T15:43:57;54.45;;;29.88;;
64885;SDS011;51514;52.206;5.114;2022-11-20T15:46:23;56.58;;;31.17;;
64885;SDS011;51514;52.206;5.114;2022-11-20T15:48:54;47.15;;;28.90;;
64885;SDS011;51514;52.206;5.114;2022-11-20T15:53:51;52.67;;;28.13;;
64885;SDS011;51514;52.206;5.114;2022-11-20T15:56:17;48.22;;;25.55;;
64885;SDS011;51514;52.206;5.114;2022-11-20T15:58:42;46.88;;;28.60;;